createdAt,value
2019-04-13T00:00:41.401Z,23.42
2019-04-13T00:01:53.722Z,26.45
2019-04-13T00:02:57.907Z,26.20
2019-04-13T00:04:02.126Z,25.12
2019-04-13T00:05:21.660Z,28.20
2019-04-13T00:06:30.971Z,24.27
2019-04-13T00:07:35.715Z,25.70
2019-04-13T00:08:39.916Z,26.77
2019-04-13T00:09:43.929Z,28.55
2019-04-13T00:11:09.644Z,27.37
2019-04-13T00:12:28.578Z,29.07
2019-04-13T00:13:32.877Z,28.90
2019-04-13T00:14:37.958Z,27.75
2019-04-13T00:15:42.138Z,30.15
2019-04-13T00:16:46.336Z,26.70
2019-04-13T00:17:50.838Z,31.97
2019-04-13T00:18:54.688Z,24.98
2019-04-13T00:19:58.535Z,26.42
2019-04-13T00:21:02.739Z,26.12
2019-04-13T00:22:07.025Z,27.82
2019-04-13T00:23:10.944Z,25.48
2019-04-13T00:24:14.791Z,27.05
2019-04-13T00:25:18.887Z,27.13
2019-04-13T00:26:23.576Z,26.80
2019-04-13T00:27:27.920Z,25.95
2019-04-13T00:28:32.360Z,26.77
2019-04-13T00:29:36.719Z,26.77
2019-04-13T00:30:40.571Z,27.27
2019-04-13T00:31:44.486Z,24.65
2019-04-13T00:32:48.656Z,27.22
2019-04-13T00:33:52.897Z,27.70
2019-04-13T00:34:56.820Z,28.05
2019-04-13T00:36:00.923Z,26.07
2019-04-13T00:37:05.158Z,28.67
2019-04-13T00:38:09.104Z,27.00
2019-04-13T00:39:13.272Z,29.50
2019-04-13T00:40:17.767Z,27.42
2019-04-13T00:41:21.612Z,30.50
2019-04-13T00:42:26.100Z,25.75
2019-04-13T00:43:30.451Z,27.55
2019-04-13T00:44:34.618Z,27.25
2019-04-13T00:45:38.551Z,27.13
2019-04-13T00:46:42.466Z,25.55
2019-04-13T00:47:46.559Z,25.62
2019-04-13T00:48:50.963Z,26.05
2019-04-13T00:49:54.809Z,27.10
2019-04-13T00:50:59.083Z,30.37
2019-04-13T00:52:03.324Z,25.92
2019-04-13T00:53:07.443Z,28.95
2019-04-13T00:54:11.360Z,27.75
2019-04-13T00:55:15.206Z,27.52
2019-04-13T00:56:19.641Z,29.90
2019-04-13T00:57:23.991Z,26.25
2019-04-13T00:58:28.491Z,27.60
2019-04-13T00:59:32.463Z,27.07
2019-04-13T01:00:36.672Z,28.40
2019-04-13T01:01:40.775Z,28.32
2019-04-13T01:02:44.627Z,26.65
2019-04-13T01:03:49.226Z,29.48
2019-04-13T01:04:53.984Z,27.50
2019-04-13T01:05:58.475Z,28.40
2019-04-13T01:07:02.803Z,28.38
2019-04-13T01:08:06.728Z,28.75
2019-04-13T01:09:11.044Z,28.95
2019-04-13T01:10:15.098Z,31.82
2019-04-13T01:11:19.384Z,29.67
2019-04-13T01:12:23.642Z,32.93
2019-04-13T01:13:28.103Z,32.38
2019-04-13T01:14:32.524Z,31.70
2019-04-13T01:15:36.449Z,28.23
2019-04-13T01:16:40.719Z,28.07
2019-04-13T01:17:45.221Z,29.80
2019-04-13T01:18:49.142Z,31.12
2019-04-13T01:19:53.574Z,29.63
2019-04-13T01:20:57.735Z,29.57
2019-04-13T01:22:01.976Z,29.07
2019-04-13T01:23:06.163Z,30.15
2019-04-13T01:24:10.074Z,26.80
2019-04-13T01:25:13.999Z,30.00
2019-04-13T01:26:17.934Z,30.50
2019-04-13T01:27:22.366Z,33.98
2019-04-13T01:28:26.571Z,31.73
2019-04-13T01:29:30.906Z,31.75
2019-04-13T01:30:35.099Z,30.15
2019-04-13T01:31:38.972Z,31.55
2019-04-13T01:32:43.188Z,29.90
2019-04-13T01:33:47.035Z,30.97
2019-04-13T01:34:50.967Z,32.38
2019-04-13T01:35:55.010Z,32.53
2019-04-13T01:36:59.400Z,30.72
2019-04-13T01:38:03.250Z,30.45
2019-04-13T01:39:08.137Z,31.60
2019-04-13T01:40:12.242Z,30.00
2019-04-13T01:41:16.364Z,29.85
2019-04-13T01:42:20.311Z,33.30
2019-04-13T01:43:24.736Z,32.75
2019-04-13T01:44:28.932Z,29.02
2019-04-13T01:45:33.372Z,31.12
2019-04-13T01:46:37.708Z,33.35
2019-04-13T01:47:42.287Z,28.75
2019-04-13T01:48:46.211Z,35.50
2019-04-13T01:49:50.440Z,28.30
2019-04-13T01:50:54.542Z,28.50
2019-04-13T01:51:58.732Z,33.05
2019-04-13T01:53:03.187Z,28.47
2019-04-13T01:54:07.107Z,31.05
2019-04-13T01:55:11.104Z,31.75
2019-04-13T01:56:15.683Z,29.27
2019-04-13T01:57:19.623Z,30.90
2019-04-13T01:58:24.282Z,30.88
2019-04-13T01:59:28.375Z,32.95
2019-04-13T02:00:43.659Z,31.77
2019-04-13T02:02:21.519Z,31.20
2019-04-13T02:03:25.905Z,30.12
2019-04-13T02:04:42.487Z,30.35
2019-04-13T02:05:51.630Z,32.65
2019-04-13T02:07:29.732Z,29.35
2019-04-13T02:08:44.312Z,30.62
2019-04-13T02:10:19.647Z,31.05
2019-04-13T02:11:27.579Z,29.32
2019-04-13T02:12:31.516Z,31.82
2019-04-13T02:13:35.763Z,30.60
2019-04-13T02:14:39.863Z,30.68
2019-04-13T02:15:44.108Z,33.08
2019-04-13T02:16:48.644Z,30.30
2019-04-13T02:17:52.504Z,32.05
2019-04-13T02:18:56.593Z,32.73
2019-04-13T02:20:01.011Z,32.13
2019-04-13T02:21:05.251Z,30.60
2019-04-13T02:22:09.415Z,33.78
2019-04-13T02:23:13.691Z,30.02
2019-04-13T02:24:17.861Z,29.45
2019-04-13T02:25:21.947Z,30.72
2019-04-13T02:26:26.110Z,30.43
2019-04-13T02:27:29.963Z,32.08
2019-04-13T02:28:34.511Z,32.00
2019-04-13T02:29:38.670Z,31.87
2019-04-13T02:30:42.941Z,31.70
2019-04-13T02:31:47.508Z,30.45
2019-04-13T02:32:51.445Z,30.12
2019-04-13T02:33:56.169Z,32.33
2019-04-13T02:35:00.439Z,30.40
2019-04-13T02:36:04.687Z,32.13
2019-04-13T02:37:08.692Z,34.08
2019-04-13T02:38:13.045Z,30.35
2019-04-13T02:39:17.257Z,30.97
2019-04-13T02:40:21.502Z,32.13
2019-04-13T02:41:25.743Z,33.33
2019-04-13T02:42:29.908Z,33.35
2019-04-13T02:43:34.015Z,29.48
2019-04-13T02:44:38.510Z,31.80
2019-04-13T02:45:43.264Z,29.40
2019-04-13T02:46:47.428Z,31.70
2019-04-13T02:47:51.267Z,31.85
2019-04-13T02:48:55.124Z,30.72
2019-04-13T02:49:59.361Z,31.07
2019-04-13T02:51:03.895Z,31.55
2019-04-13T02:52:08.035Z,30.37
2019-04-13T02:53:12.242Z,32.05
2019-04-13T02:54:16.479Z,31.60
2019-04-13T02:55:20.646Z,31.20
2019-04-13T02:56:24.730Z,31.20
2019-04-13T02:57:28.643Z,31.27
2019-04-13T02:58:32.503Z,31.02
2019-04-13T02:59:37.115Z,29.75
2019-04-13T03:00:41.117Z,35.28
2019-04-13T03:01:45.031Z,31.20
2019-04-13T03:02:49.052Z,32.15
2019-04-13T03:03:53.233Z,31.82
2019-04-13T03:04:57.720Z,31.77
2019-04-13T03:06:01.954Z,32.30
2019-04-13T03:07:05.943Z,32.42
2019-04-13T03:08:10.173Z,31.93
2019-04-13T03:09:14.419Z,33.60
2019-04-13T03:10:18.618Z,32.30
2019-04-13T03:11:22.917Z,30.15
2019-04-13T03:12:27.279Z,30.65
2019-04-13T03:13:31.603Z,31.00
2019-04-13T03:14:36.157Z,29.95
2019-04-13T03:16:05.001Z,32.17
2019-04-13T03:17:35.279Z,31.95
2019-04-13T03:19:00.816Z,34.15
2019-04-13T03:20:07.976Z,30.50
2019-04-13T03:21:12.149Z,31.60
2019-04-13T03:22:16.703Z,33.88
2019-04-13T03:23:20.698Z,34.98
2019-04-13T03:24:24.718Z,35.28
2019-04-13T03:25:28.731Z,33.80
2019-04-13T03:26:32.679Z,33.45
2019-04-13T03:27:37.461Z,31.48
2019-04-13T03:28:41.382Z,32.93
2019-04-13T03:29:45.683Z,29.40
2019-04-13T03:30:50.272Z,29.50
2019-04-13T03:31:55.116Z,32.53
2019-04-13T03:32:59.601Z,32.15
2019-04-13T03:34:04.207Z,33.90
2019-04-13T03:35:08.303Z,30.82
2019-04-13T03:36:12.530Z,31.20
2019-04-13T03:37:16.711Z,30.23
2019-04-13T03:38:20.870Z,30.62
2019-04-13T03:39:25.046Z,32.17
2019-04-13T03:40:29.135Z,33.28
2019-04-13T03:41:33.551Z,34.95
2019-04-13T03:42:37.788Z,30.85
2019-04-13T03:43:41.884Z,31.55
2019-04-13T03:44:46.165Z,30.65
2019-04-13T03:45:50.351Z,30.72
2019-04-13T03:46:54.816Z,30.95
2019-04-13T03:47:59.327Z,30.95
2019-04-13T03:49:03.331Z,31.68
2019-04-13T03:50:08.139Z,31.40
2019-04-13T03:51:12.769Z,32.05
2019-04-13T03:52:18.076Z,32.38
2019-04-13T03:53:22.409Z,32.40
2019-04-13T03:54:27.139Z,31.05
2019-04-13T03:55:31.690Z,35.78
2019-04-13T03:56:35.938Z,31.37
2019-04-13T03:57:40.472Z,33.20
2019-04-13T03:58:45.189Z,31.33
2019-04-13T03:59:49.783Z,30.30
2019-04-13T04:00:53.983Z,32.75
2019-04-13T04:01:57.904Z,31.33
2019-04-13T04:03:01.827Z,31.42
2019-04-13T04:04:05.818Z,33.83
2019-04-13T04:05:10.127Z,33.02
2019-04-13T04:06:14.048Z,34.85
2019-04-13T04:07:18.567Z,31.23
2019-04-13T04:08:23.004Z,31.68
2019-04-13T04:09:27.195Z,31.95
2019-04-13T04:10:31.044Z,31.77
2019-04-13T04:11:35.257Z,32.05
2019-04-13T04:12:39.260Z,34.75
2019-04-13T04:13:43.830Z,31.68
2019-04-13T04:14:48.051Z,30.43
2019-04-13T04:15:52.547Z,31.82
2019-04-13T04:16:56.965Z,33.35
2019-04-13T04:18:01.283Z,33.83
2019-04-13T04:19:05.620Z,30.90
2019-04-13T04:20:09.904Z,29.72
2019-04-13T04:21:14.411Z,31.45
2019-04-13T04:22:19.018Z,31.55
2019-04-13T04:23:23.219Z,32.63
2019-04-13T04:24:27.673Z,30.50
2019-04-13T04:25:31.847Z,33.48
2019-04-13T04:26:36.046Z,31.10
2019-04-13T04:27:40.288Z,31.00
2019-04-13T04:28:44.383Z,30.10
2019-04-13T04:29:49.343Z,33.02
2019-04-13T04:30:53.330Z,32.98
2019-04-13T04:31:57.566Z,33.40
2019-04-13T04:33:01.660Z,31.75
2019-04-13T04:34:05.755Z,29.67
2019-04-13T04:35:09.775Z,31.93
2019-04-13T04:36:23.184Z,32.17
2019-04-13T04:37:19.832Z,31.33
2019-04-13T04:38:23.683Z,31.25
2019-04-13T04:39:28.119Z,31.55
2019-04-13T04:40:31.987Z,30.68
2019-04-13T04:41:36.056Z,31.40
2019-04-13T04:42:40.676Z,31.42
2019-04-13T04:43:45.172Z,30.72
2019-04-13T04:44:49.355Z,31.02
2019-04-13T04:45:54.013Z,30.17
2019-04-13T04:46:58.524Z,30.62
2019-04-13T04:48:03.024Z,31.95
2019-04-13T04:49:07.952Z,33.42
2019-04-13T04:50:12.323Z,32.08
2019-04-13T04:51:16.264Z,31.73
2019-04-13T04:52:20.575Z,31.65
2019-04-13T04:53:24.424Z,31.70
2019-04-13T04:54:29.106Z,31.85
2019-04-13T04:55:33.725Z,31.12
2019-04-13T04:56:37.916Z,30.10
2019-04-13T04:57:42.539Z,31.37
2019-04-13T04:58:46.392Z,30.52
2019-04-13T04:59:50.506Z,31.07
2019-04-13T05:00:54.655Z,32.53
2019-04-13T05:01:58.899Z,30.97
2019-04-13T05:03:03.558Z,33.60
2019-04-13T05:04:07.824Z,31.25
2019-04-13T05:05:12.471Z,33.67
2019-04-13T05:06:16.886Z,33.28
2019-04-13T05:07:21.403Z,33.55
2019-04-13T05:08:25.254Z,32.45
2019-04-13T05:09:29.394Z,32.10
2019-04-13T05:10:33.505Z,36.10
2019-04-13T05:11:38.453Z,30.95
2019-04-13T05:12:42.795Z,30.30
2019-04-13T05:13:46.951Z,31.97
2019-04-13T05:14:51.095Z,30.08
2019-04-13T05:15:55.312Z,30.92
2019-04-13T05:16:59.640Z,30.82
2019-04-13T05:18:03.487Z,31.45
2019-04-13T05:19:07.911Z,30.92
2019-04-13T05:20:12.007Z,29.87
2019-04-13T05:21:17.187Z,29.27
2019-04-13T05:22:26.552Z,27.77
2019-04-13T05:23:27.035Z,28.27
2019-04-13T05:24:31.458Z,30.20
2019-04-13T05:25:36.011Z,31.10
2019-04-13T05:26:40.182Z,30.50
2019-04-13T05:27:44.385Z,31.65
2019-04-13T05:28:49.249Z,32.03
2019-04-13T05:29:53.413Z,27.80
2019-04-13T05:30:57.523Z,28.87
2019-04-13T05:32:01.399Z,31.35
2019-04-13T05:33:05.705Z,28.50
2019-04-13T05:34:18.528Z,35.30
2019-04-13T05:35:23.032Z,31.45
2019-04-13T05:36:27.310Z,29.37
2019-04-13T05:37:31.860Z,30.80
2019-04-13T05:38:36.068Z,29.80
2019-04-13T05:39:40.577Z,29.12
2019-04-13T05:40:44.928Z,30.30
2019-04-13T05:41:48.881Z,29.90
2019-04-13T05:42:52.971Z,28.50
2019-04-13T05:43:57.071Z,30.05
2019-04-13T05:45:01.664Z,28.50
2019-04-13T05:46:05.580Z,30.25
2019-04-13T05:47:09.979Z,30.60
2019-04-13T05:48:14.071Z,30.52
2019-04-13T05:49:18.040Z,29.72
2019-04-13T05:50:22.022Z,30.88
2019-04-13T05:51:25.864Z,29.55
2019-04-13T05:52:30.211Z,31.62
2019-04-13T05:53:34.380Z,29.30
2019-04-13T05:54:38.476Z,29.92
2019-04-13T05:55:42.404Z,29.00
2019-04-13T05:56:46.670Z,27.22
2019-04-13T05:57:51.019Z,29.27
2019-04-13T05:59:02.951Z,30.23
2019-04-13T06:00:00.679Z,29.07
2019-04-13T06:01:04.595Z,31.60
2019-04-13T06:02:08.772Z,30.20
2019-04-13T06:03:12.619Z,32.03
2019-04-13T06:04:17.209Z,28.67
2019-04-13T06:05:22.872Z,27.52
2019-04-13T06:06:27.032Z,30.45
2019-04-13T06:07:31.235Z,27.77
2019-04-13T06:08:36.073Z,30.08
2019-04-13T06:09:40.045Z,30.57
2019-04-13T06:10:44.018Z,31.90
2019-04-13T06:11:48.596Z,30.30
2019-04-13T06:12:54.202Z,30.57
2019-04-13T06:14:01.951Z,28.47
2019-04-13T06:15:05.246Z,29.63
2019-04-13T06:16:09.924Z,28.07
2019-04-13T06:17:14.113Z,28.60
2019-04-13T06:18:21.051Z,30.40
2019-04-13T06:19:24.308Z,30.65
2019-04-13T06:20:28.160Z,30.68
2019-04-13T06:21:32.681Z,27.82
2019-04-13T06:22:36.959Z,27.52
2019-04-13T06:23:41.742Z,31.48
2019-04-13T06:24:45.912Z,29.82
2019-04-13T06:25:50.192Z,33.20
2019-04-13T06:26:54.761Z,29.15
2019-04-13T06:27:59.499Z,28.95
2019-04-13T06:29:05.005Z,27.35
2019-04-13T06:30:37.552Z,26.82
2019-04-13T06:31:59.248Z,27.85
2019-04-13T06:33:09.657Z,28.07
2019-04-13T06:34:42.168Z,27.05
2019-04-13T06:35:46.339Z,27.07
2019-04-13T06:36:50.826Z,27.65
2019-04-13T06:37:55.438Z,24.18
2019-04-13T06:39:00.328Z,25.12
2019-04-13T06:40:07.951Z,26.00
2019-04-13T06:41:11.830Z,28.17
2019-04-13T06:42:16.951Z,28.20
2019-04-13T06:43:21.528Z,26.60
2019-04-13T06:44:26.100Z,27.10
2019-04-13T06:45:30.018Z,24.55
2019-04-13T06:46:34.021Z,28.77
2019-04-13T06:47:38.599Z,25.25
2019-04-13T06:48:42.820Z,26.52
2019-04-13T06:49:48.221Z,26.42
2019-04-13T06:50:52.559Z,27.67
2019-04-13T06:51:56.480Z,27.22
2019-04-13T06:53:00.636Z,25.92
2019-04-13T06:54:04.793Z,23.40
2019-04-13T06:55:09.581Z,26.87
2019-04-13T06:56:13.573Z,24.65
2019-04-13T06:57:17.797Z,29.55
2019-04-13T06:58:22.460Z,25.20
2019-04-13T06:59:26.826Z,26.55
2019-04-13T07:00:31.363Z,24.47
2019-04-13T07:01:35.340Z,29.32
2019-04-13T07:02:39.777Z,28.73
2019-04-13T07:03:43.907Z,25.52
2019-04-13T07:04:47.999Z,27.30
2019-04-13T07:05:52.315Z,27.13
2019-04-13T07:06:58.481Z,25.90
2019-04-13T07:08:15.714Z,25.60
2019-04-13T07:09:26.178Z,26.12
2019-04-13T07:10:59.759Z,25.40
2019-04-13T07:12:30.871Z,28.27
2019-04-13T07:13:51.620Z,25.37
2019-04-13T07:14:55.551Z,27.32
2019-04-13T07:16:10.405Z,23.20
2019-04-13T07:17:20.546Z,26.40
2019-04-13T07:18:25.198Z,24.40
2019-04-13T07:19:29.843Z,22.82
2019-04-13T07:20:33.927Z,25.92
2019-04-13T07:21:38.435Z,24.45
2019-04-13T07:22:42.531Z,23.77
2019-04-13T07:23:47.179Z,23.20
2019-04-13T07:24:51.385Z,25.05
2019-04-13T07:25:55.927Z,31.05
2019-04-13T07:27:00.411Z,23.27
2019-04-13T07:28:04.519Z,23.92
2019-04-13T07:29:12.141Z,23.25
2019-04-13T07:30:16.476Z,25.08
2019-04-13T07:31:20.735Z,26.50
2019-04-13T07:32:24.972Z,26.40
2019-04-13T07:33:29.434Z,24.20
2019-04-13T07:34:34.618Z,26.27
2019-04-13T07:35:40.619Z,23.90
2019-04-13T07:36:45.319Z,46.00
2019-04-13T07:37:50.049Z,60.10
2019-04-13T07:38:54.336Z,24.82
2019-04-13T07:39:58.893Z,22.37
2019-04-13T07:41:03.002Z,23.32
2019-04-13T07:42:06.887Z,26.33
2019-04-13T07:43:11.522Z,25.37
2019-04-13T07:44:26.167Z,26.30
2019-04-13T07:45:58.040Z,24.02
2019-04-13T07:47:33.204Z,23.00
2019-04-13T07:49:02.253Z,24.98
2019-04-13T07:50:28.824Z,23.87
2019-04-13T07:51:51.415Z,20.43
2019-04-13T07:52:55.038Z,25.77
2019-04-13T07:53:59.263Z,21.93
2019-04-13T07:55:03.424Z,25.82
2019-04-13T07:56:07.376Z,28.75
2019-04-13T07:57:11.375Z,28.15
2019-04-13T07:58:16.799Z,72.37
2019-04-13T07:59:21.099Z,47.00
2019-04-13T08:00:25.548Z,62.15
2019-04-13T08:01:31.268Z,74.15
2019-04-13T08:02:35.182Z,28.25
2019-04-13T08:03:39.608Z,26.57
2019-04-13T08:04:43.903Z,22.58
2019-04-13T08:05:48.499Z,24.67
2019-04-13T08:06:52.679Z,24.32
2019-04-13T08:07:57.306Z,23.60
2019-04-13T08:09:01.310Z,25.65
2019-04-13T08:10:06.024Z,28.35
2019-04-13T08:11:10.672Z,25.25
2019-04-13T08:12:17.071Z,23.65
2019-04-13T08:13:21.319Z,25.85
2019-04-13T08:14:30.264Z,25.82
2019-04-13T08:15:34.600Z,22.22
2019-04-13T08:16:39.611Z,24.32
2019-04-13T08:17:43.759Z,23.20
2019-04-13T08:19:02.499Z,24.20
2019-04-13T08:20:20.563Z,23.60
2019-04-13T08:21:44.377Z,24.70
2019-04-13T08:22:48.646Z,24.87
2019-04-13T08:23:56.735Z,24.70
2019-04-13T08:25:01.234Z,23.30
2019-04-13T08:26:08.982Z,23.18
2019-04-13T08:27:11.440Z,23.00
2019-04-13T08:28:15.987Z,20.68
2019-04-13T08:29:20.177Z,22.48
2019-04-13T08:30:25.455Z,24.60
2019-04-13T08:31:29.632Z,22.73
2019-04-13T08:32:35.421Z,23.92
2019-04-13T08:33:39.810Z,22.95
2019-04-13T08:34:44.066Z,26.07
2019-04-13T08:35:48.499Z,23.07
2019-04-13T08:36:52.905Z,24.57
2019-04-13T08:38:12.245Z,25.48
2019-04-13T08:39:03.384Z,22.45
2019-04-13T08:40:09.581Z,25.23
2019-04-13T08:41:14.176Z,21.65
2019-04-13T08:42:20.109Z,23.67
2019-04-13T08:43:24.621Z,20.48
2019-04-13T08:44:28.521Z,23.73
2019-04-13T08:45:32.694Z,22.87
2019-04-13T08:46:43.062Z,24.55
2019-04-13T08:47:47.697Z,24.25
2019-04-13T08:48:51.798Z,22.80
2019-04-13T08:49:56.299Z,21.75
2019-04-13T08:51:00.602Z,22.27
2019-04-13T08:52:05.216Z,25.10
2019-04-13T08:53:10.048Z,24.12
2019-04-13T08:54:14.271Z,22.65
2019-04-13T08:55:18.167Z,25.72
2019-04-13T08:56:22.972Z,23.20
2019-04-13T08:57:27.576Z,24.77
2019-04-13T08:58:32.411Z,24.15
2019-04-13T08:59:36.955Z,22.13
2019-04-13T09:00:41.426Z,23.87
2019-04-13T09:01:45.449Z,25.27
2019-04-13T09:02:50.269Z,22.70
2019-04-13T09:03:54.541Z,22.35
2019-04-13T09:04:59.093Z,24.92
2019-04-13T09:06:03.017Z,26.23
2019-04-13T09:07:07.620Z,28.90
2019-04-13T09:08:12.895Z,26.05
2019-04-13T09:09:17.610Z,35.78
2019-04-13T09:10:27.369Z,45.30
2019-04-13T09:11:28.835Z,37.75
2019-04-13T09:12:34.171Z,25.70
2019-04-13T09:13:48.042Z,23.45
2019-04-13T09:15:01.972Z,23.95
2019-04-13T09:16:06.558Z,23.62
2019-04-13T09:17:14.957Z,23.32
2019-04-13T09:18:50.866Z,26.00
2019-04-13T09:20:05.779Z,23.32
2019-04-13T09:21:18.835Z,26.25
2019-04-13T09:22:24.723Z,20.43
2019-04-13T09:23:32.114Z,25.70
2019-04-13T09:24:35.831Z,24.35
2019-04-13T09:25:39.674Z,22.73
2019-04-13T09:26:43.597Z,26.00
2019-04-13T09:27:47.459Z,24.85
2019-04-13T09:28:51.556Z,22.15
2019-04-13T09:29:55.423Z,23.12
2019-04-13T09:30:59.509Z,23.30
2019-04-13T09:32:03.753Z,24.10
2019-04-13T09:33:08.469Z,21.33
2019-04-13T09:34:28.254Z,23.35
2019-04-13T09:35:18.673Z,24.82
2019-04-13T09:36:23.527Z,26.10
2019-04-13T09:37:27.628Z,26.40
2019-04-13T09:38:41.609Z,26.60
2019-04-13T09:39:37.521Z,25.00
2019-04-13T09:40:41.713Z,24.20
2019-04-13T09:41:46.879Z,24.32
2019-04-13T09:42:51.228Z,27.02
2019-04-13T09:44:04.110Z,26.17
2019-04-13T09:45:08.590Z,26.10
2019-04-13T09:46:12.822Z,23.77
2019-04-13T09:47:26.032Z,26.90
2019-04-13T09:48:30.030Z,24.40
2019-04-13T09:49:34.510Z,25.32
2019-04-13T09:50:39.131Z,23.27
2019-04-13T09:51:43.419Z,30.15
2019-04-13T09:52:47.602Z,25.12
2019-04-13T09:53:55.945Z,21.37
2019-04-13T09:54:57.866Z,30.23
2019-04-13T09:56:02.805Z,26.35
2019-04-13T09:57:06.883Z,27.70
2019-04-13T09:58:11.692Z,26.45
2019-04-13T09:59:16.310Z,26.55
2019-04-13T10:00:20.666Z,27.37
2019-04-13T10:01:25.508Z,24.47
2019-04-13T10:02:29.792Z,26.37
2019-04-13T10:03:34.000Z,25.27
2019-04-13T10:04:38.613Z,25.75
2019-04-13T10:05:42.680Z,26.23
2019-04-13T10:06:47.117Z,26.00
2019-04-13T10:07:51.752Z,27.20
2019-04-13T10:08:56.499Z,26.05
2019-04-13T10:10:20.523Z,23.75
2019-04-13T10:11:30.344Z,25.12
2019-04-13T10:12:52.928Z,25.88
2019-04-13T10:14:19.308Z,24.30
2019-04-13T10:15:48.722Z,31.75
2019-04-13T10:17:13.688Z,30.75
2019-04-13T10:18:22.523Z,25.00
2019-04-13T10:19:31.402Z,26.73
2019-04-13T10:20:32.767Z,25.95
2019-04-13T10:21:37.436Z,24.55
2019-04-13T10:22:42.256Z,26.27
2019-04-13T10:23:47.335Z,31.12
2019-04-13T10:24:51.781Z,23.77
2019-04-13T10:25:56.588Z,30.35
2019-04-13T10:27:01.046Z,27.67
2019-04-13T10:28:05.240Z,37.53
2019-04-13T10:29:12.880Z,43.00
2019-04-13T10:30:20.090Z,24.20
2019-04-13T10:31:26.721Z,23.75
2019-04-13T10:32:31.063Z,54.75
2019-04-13T10:33:35.711Z,42.15
2019-04-13T10:34:39.709Z,26.07
2019-04-13T10:35:46.770Z,33.83
2019-04-13T10:36:49.769Z,26.75
2019-04-13T10:37:54.869Z,25.70
2019-04-13T10:39:08.267Z,26.42
2019-04-13T10:40:08.375Z,26.37
2019-04-13T10:41:11.321Z,24.07
2019-04-13T10:42:15.744Z,23.52
2019-04-13T10:43:19.774Z,25.35
2019-04-13T10:44:26.574Z,24.90
2019-04-13T10:45:50.128Z,23.57
2019-04-13T10:47:12.140Z,26.23
2019-04-13T10:48:25.338Z,26.95
2019-04-13T10:49:57.048Z,25.60
2019-04-13T10:51:24.112Z,24.45
2019-04-13T10:52:27.970Z,25.40
2019-04-13T10:53:32.441Z,30.25
2019-04-13T10:54:36.349Z,28.62
2019-04-13T10:55:40.580Z,26.50
2019-04-13T10:56:44.712Z,23.83
2019-04-13T10:57:49.057Z,26.93
2019-04-13T10:58:55.142Z,25.77
2019-04-13T10:59:58.878Z,28.30
2019-04-13T11:01:03.293Z,28.75
2019-04-13T11:02:07.907Z,25.17
2019-04-13T11:03:12.173Z,27.93
2019-04-13T11:04:16.018Z,26.68
2019-04-13T11:05:20.723Z,24.18
2019-04-13T11:06:24.897Z,26.85
2019-04-13T11:07:28.992Z,25.37
2019-04-13T11:08:33.351Z,25.00
2019-04-13T11:09:38.038Z,23.50
2019-04-13T11:10:42.525Z,26.45
2019-04-13T11:11:46.796Z,26.48
2019-04-13T11:12:50.723Z,25.40
2019-04-13T11:13:54.889Z,23.73
2019-04-13T11:14:59.393Z,24.92
2019-04-13T11:16:03.567Z,28.30
2019-04-13T11:17:09.129Z,27.93
2019-04-13T11:18:13.130Z,24.12
2019-04-13T11:19:17.557Z,23.90
2019-04-13T11:20:21.497Z,22.87
2019-04-13T11:21:25.415Z,26.80
2019-04-13T11:22:29.260Z,24.90
2019-04-13T11:23:36.440Z,25.23
2019-04-13T11:24:39.088Z,22.80
2019-04-13T11:25:43.337Z,33.65
2019-04-13T11:26:51.247Z,26.85
2019-04-13T11:27:53.072Z,26.90
2019-04-13T11:28:57.316Z,24.82
2019-04-13T11:30:01.554Z,26.00
2019-04-13T11:31:05.860Z,28.98
2019-04-13T11:32:10.223Z,29.02
2019-04-13T11:33:14.604Z,28.02
2019-04-13T11:34:19.363Z,23.65
2019-04-13T11:35:23.706Z,24.23
2019-04-13T11:36:27.636Z,22.48
2019-04-13T11:37:32.467Z,31.48
2019-04-13T11:38:38.021Z,36.73
2019-04-13T11:39:42.288Z,32.10
2019-04-13T11:40:47.871Z,26.68
2019-04-13T11:42:26.829Z,22.65
2019-04-13T11:43:39.329Z,26.27
2019-04-13T11:45:01.677Z,25.57
2019-04-13T11:46:23.535Z,22.98
2019-04-13T11:47:56.154Z,27.93
2019-04-13T11:49:04.785Z,24.07
2019-04-13T11:50:14.047Z,25.40
2019-04-13T11:51:24.194Z,24.57
2019-04-13T11:52:28.670Z,20.35
2019-04-13T11:53:32.850Z,21.52
2019-04-13T11:54:37.056Z,23.32
2019-04-13T11:55:41.169Z,25.57
2019-04-13T11:56:45.500Z,21.90
2019-04-13T11:57:50.016Z,23.55
2019-04-13T11:58:53.945Z,22.00
2019-04-13T11:59:58.702Z,22.98
2019-04-13T12:01:18.295Z,23.75
2019-04-13T12:02:30.458Z,22.00
2019-04-13T12:03:53.854Z,25.10
2019-04-13T12:05:29.081Z,24.15
2019-04-13T12:07:01.200Z,21.95
2019-04-13T12:08:21.507Z,27.55
2019-04-13T12:09:49.230Z,21.55
2019-04-13T12:11:01.831Z,22.02
2019-04-13T12:12:28.565Z,20.62
2019-04-13T12:13:55.932Z,21.57
2019-04-13T12:15:12.421Z,23.98
2019-04-13T12:16:34.660Z,22.50
2019-04-13T12:18:00.431Z,22.70
2019-04-13T12:19:25.197Z,22.15
2019-04-13T12:20:36.773Z,21.77
2019-04-13T12:21:59.151Z,24.20
2019-04-13T12:23:03.598Z,21.95
2019-04-13T12:24:11.093Z,20.97
2019-04-13T12:25:15.277Z,23.40
2019-04-13T12:26:19.463Z,20.15
2019-04-13T12:27:23.577Z,20.05
2019-04-13T12:28:27.825Z,20.15
2019-04-13T12:29:32.573Z,19.85
2019-04-13T12:30:38.065Z,21.10
2019-04-13T12:31:42.426Z,21.90
2019-04-13T12:32:47.682Z,19.82
2019-04-13T12:33:51.909Z,23.57
2019-04-13T12:34:56.324Z,21.42
2019-04-13T12:36:00.243Z,20.85
2019-04-13T12:37:04.442Z,19.92
2019-04-13T12:38:10.535Z,21.15
2019-04-13T12:39:15.429Z,20.02
2019-04-13T12:40:43.523Z,21.02
2019-04-13T12:42:02.166Z,21.48
2019-04-13T12:43:06.103Z,21.35
2019-04-13T12:44:10.385Z,20.70
2019-04-13T12:45:14.581Z,22.32
2019-04-13T12:46:19.204Z,24.00
2019-04-13T12:47:23.411Z,22.25
2019-04-13T12:48:27.591Z,21.12
2019-04-13T12:49:31.943Z,22.40
2019-04-13T12:50:36.804Z,24.18
2019-04-13T12:51:40.744Z,23.12
2019-04-13T12:52:45.598Z,22.13
2019-04-13T12:53:50.291Z,22.50
2019-04-13T12:54:54.673Z,20.20
2019-04-13T12:55:59.128Z,21.33
2019-04-13T12:57:03.616Z,23.67
2019-04-13T12:58:08.137Z,19.67
2019-04-13T12:59:14.632Z,26.42
2019-04-13T13:00:31.471Z,24.12
2019-04-13T13:01:57.901Z,22.52
2019-04-13T13:03:03.271Z,22.75
2019-04-13T13:04:07.457Z,23.40
2019-04-13T13:05:13.805Z,21.85
2019-04-13T13:06:17.733Z,22.70
2019-04-13T13:07:21.967Z,22.32
2019-04-13T13:08:26.237Z,23.50
2019-04-13T13:09:30.535Z,24.95
2019-04-13T13:10:34.456Z,22.05
2019-04-13T13:11:38.620Z,23.65
2019-04-13T13:12:45.369Z,21.77
2019-04-13T13:13:52.498Z,23.15
2019-04-13T13:14:54.499Z,23.35
2019-04-13T13:15:58.668Z,22.82
2019-04-13T13:17:02.840Z,22.48
2019-04-13T13:18:06.777Z,22.32
2019-04-13T13:19:11.125Z,21.90
2019-04-13T13:20:16.935Z,20.97
2019-04-13T13:21:21.113Z,24.12
2019-04-13T13:22:25.554Z,30.88
2019-04-13T13:23:30.017Z,25.97
2019-04-13T13:24:33.932Z,22.27
2019-04-13T13:25:38.191Z,24.00
2019-04-13T13:26:48.343Z,27.90
2019-04-13T13:27:48.360Z,22.75
2019-04-13T13:28:52.540Z,22.35
2019-04-13T13:29:56.971Z,29.57
2019-04-13T13:31:01.129Z,26.15
2019-04-13T13:32:05.118Z,24.80
2019-04-13T13:33:09.057Z,21.87
2019-04-13T13:34:13.152Z,20.72
2019-04-13T13:35:17.145Z,22.20
2019-04-13T13:36:21.634Z,22.13
2019-04-13T13:37:25.809Z,23.80
2019-04-13T13:38:30.207Z,22.98
2019-04-13T13:39:34.054Z,22.20
2019-04-13T13:40:38.286Z,21.57
2019-04-13T13:41:42.404Z,21.40
2019-04-13T13:42:46.492Z,23.55
2019-04-13T13:43:50.429Z,22.40
2019-04-13T13:44:54.845Z,22.65
2019-04-13T13:45:59.007Z,23.25
2019-04-13T13:47:03.431Z,23.57
2019-04-13T13:48:07.369Z,21.85
2019-04-13T13:49:13.331Z,21.20
2019-04-13T13:50:21.998Z,21.60
2019-04-13T13:51:26.840Z,22.42
2019-04-13T13:52:32.752Z,24.50
2019-04-13T13:53:36.689Z,23.35
2019-04-13T13:54:40.786Z,23.77
2019-04-13T13:55:45.151Z,24.82
2019-04-13T13:56:48.997Z,24.05
2019-04-13T13:58:11.073Z,24.18
2019-04-13T13:59:15.360Z,25.30
2019-04-13T14:00:23.974Z,25.72
2019-04-13T14:01:35.723Z,25.10
2019-04-13T14:02:39.649Z,23.98
2019-04-13T14:03:43.625Z,24.47
2019-04-13T14:04:47.740Z,22.73
2019-04-13T14:05:51.666Z,23.57
2019-04-13T14:06:56.139Z,25.37
2019-04-13T14:08:03.569Z,23.80
2019-04-13T14:09:09.927Z,23.55
2019-04-13T14:10:14.469Z,27.50
2019-04-13T14:11:19.032Z,24.92
2019-04-13T14:12:23.210Z,24.87
2019-04-13T14:13:29.578Z,28.00
2019-04-13T14:14:32.793Z,27.65